Terminal Aerodrome Forecast
Issued by NWS

Home | Current Version | Previous Version | Text Only | Print | Product List | Glossary On
Versions: 1 2 3 4 5 6 7 8 9 10 11 12 13 14 15 16 17 18 19 20 21 22 23 24 25 26 27 28 29 30 31 32
000
FTUS43 KDLH 280500
TAFHIB
TAF
KHIB 280525Z 2806/2906 00000KT 1/4SM FG VV002
      TEMPO 2806/2808 VRB03KT 3/4SM BR
     FM281300 VRB03KT 1 1/2SM BR SCT004 OVC008
     FM281500 18007KT P6SM SCT035
     FM282100 16006KT P6SM SCT045 SCT180
     FM290000 18010KT P6SM VCSH SCT040 BKN060=

USA.gov is the U.S. government's official web portal to all federal, state and local government web resources and services.